Disclaimer

Please do not use the information listed here in-flight or in-navigation, as they are not provided to us by the airports but are provided by volunteers, so they might be outdated.

Search


Regions


Airport information page

Radio informations:
Tower (TWR) - 124.0 MHz
Ground (GND) - 121.9 MHz
Automatic Terminal Information Service (ATIS) - 128.225 MHz
Approach (APP) - 134.175 MHz

Airport informations:
Latitude: 52° 49' 52.00" N
Longitude: 001° 19' 41.00" W
Elevation: 306 feet - 93 meters
Operating hours: 24 hour operations
Operating agency: Civil government, landing fees and diplomatic clearance may be required
Timezone: UTC 0(+1DT) - Last Sunday in March to last Sunday in October
Fuel: Jet A1, without icing nhibitor.

100/130 MIL Spec, low lead, aviation gasoline (BLUE)

Runway information:
09/27 - 9491 x 151 feet< - >2893 x 46 meters

Recent METARs:
EGNX 210150Z 04007KT 010V080 9000 -RA SCT003 BKN015 02/02 Q1006
EGNX 210220Z 05008KT 9000 -RA SCT004 BKN013 02/02 Q1006
EGNX 210250Z 06006KT 6000 -RA SCT004 BKN007 02/02 Q1005

Airport on the map: